createdAt,value
2019-06-20T00:00:44.339Z,4.50
2019-06-20T00:03:48.779Z,4.12
2019-06-20T00:06:53.233Z,4.20
2019-06-20T00:09:57.696Z,4.30
2019-06-20T00:13:02.157Z,3.60
2019-06-20T00:16:06.889Z,3.37
2019-06-20T00:19:11.333Z,2.80
2019-06-20T00:22:16.055Z,2.60
2019-06-20T00:25:20.513Z,2.20
2019-06-20T00:28:26.180Z,2.12
2019-06-20T00:35:54.122Z,1.92
2019-06-20T00:38:58.885Z,2.02
2019-06-20T00:42:03.798Z,2.00
2019-06-20T00:45:08.758Z,2.08
2019-06-20T00:48:13.211Z,1.87
2019-06-20T00:51:17.901Z,2.20
2019-06-20T00:54:22.359Z,2.33
2019-06-20T00:57:26.803Z,2.08
2019-06-20T01:00:31.240Z,2.00
2019-06-20T01:03:35.691Z,1.77
2019-06-20T01:06:40.137Z,2.33
2019-06-20T01:09:44.577Z,1.72
2019-06-20T01:12:49.029Z,2.02
2019-06-20T01:15:53.513Z,2.35
2019-06-20T01:18:57.922Z,2.02
2019-06-20T01:22:02.484Z,2.47
2019-06-20T01:25:08.740Z,1.80
2019-06-20T01:28:13.197Z,2.00
2019-06-20T01:31:17.657Z,1.90
2019-06-20T01:34:22.096Z,2.00
2019-06-20T01:37:26.550Z,2.00
2019-06-20T01:40:30.991Z,2.00
2019-06-20T01:43:49.590Z,1.70
2019-06-20T01:46:41.646Z,1.90
2019-06-20T01:49:46.356Z,1.95
2019-06-20T01:52:50.830Z,1.85
2019-06-20T01:55:55.612Z,1.72
2019-06-20T01:59:00.062Z,2.12
2019-06-20T02:02:04.662Z,1.65
2019-06-20T02:05:09.542Z,2.22
2019-06-20T02:08:14.063Z,2.25
2019-06-20T02:11:18.768Z,2.50
2019-06-20T02:14:23.235Z,2.33
2019-06-20T02:17:27.691Z,2.47
2019-06-20T02:20:51.752Z,2.40
2019-06-20T02:23:56.204Z,2.50
2019-06-20T02:27:00.663Z,2.20
2019-06-20T02:30:06.503Z,2.25
2019-06-20T02:33:11.124Z,2.33
2019-06-20T02:36:15.577Z,1.82
2019-06-20T02:39:20.030Z,1.90
2019-06-20T02:42:24.491Z,2.12
2019-06-20T02:45:28.932Z,1.75
2019-06-20T02:48:33.552Z,1.67
2019-06-20T02:51:38.448Z,1.72
2019-06-20T02:54:42.911Z,1.60
2019-06-20T02:57:47.367Z,1.52
2019-06-20T03:00:59.689Z,1.32
2019-06-20T03:04:04.212Z,2.00
2019-06-20T03:07:08.677Z,1.47
2019-06-20T03:10:13.462Z,1.85
2019-06-20T03:13:17.928Z,1.70
2019-06-20T03:16:22.376Z,2.05
2019-06-20T03:19:26.833Z,2.08
2019-06-20T03:22:31.290Z,2.02
2019-06-20T03:25:35.733Z,2.02
2019-06-20T03:28:40.198Z,2.60
2019-06-20T03:31:44.640Z,2.35
2019-06-20T03:34:49.089Z,2.40
2019-06-20T03:37:53.547Z,2.50
2019-06-20T03:40:57.989Z,2.08
2019-06-20T03:44:02.517Z,2.33
2019-06-20T03:47:07.221Z,2.10
2019-06-20T03:50:12.108Z,2.20
2019-06-20T03:53:16.563Z,2.77
2019-06-20T03:56:21.010Z,2.60
2019-06-20T03:59:25.465Z,2.72
2019-06-20T04:02:29.907Z,2.70
2019-06-20T04:05:34.956Z,2.35
2019-06-20T04:08:39.412Z,3.15
2019-06-20T04:11:44.138Z,3.12
2019-06-20T04:14:49.164Z,3.60
2019-06-20T04:17:53.727Z,3.55
2019-06-20T04:20:58.188Z,3.58
2019-06-20T04:24:02.645Z,2.92
2019-06-20T04:27:07.098Z,2.77
2019-06-20T04:30:12.126Z,3.33
2019-06-20T04:33:16.856Z,3.73
2019-06-20T04:36:21.973Z,2.80
2019-06-20T04:39:26.425Z,3.08
2019-06-20T04:42:30.869Z,3.08
2019-06-20T04:45:40.607Z,3.30
2019-06-20T04:48:45.061Z,2.90
2019-06-20T04:51:49.513Z,2.87
2019-06-20T04:54:53.967Z,3.05
2019-06-20T04:57:58.413Z,3.30
2019-06-20T05:01:03.062Z,2.80
2019-06-20T05:04:07.859Z,2.72
2019-06-20T05:07:19.947Z,2.30
2019-06-20T05:10:24.404Z,3.33
2019-06-20T05:13:28.835Z,3.42
2019-06-20T05:16:34.054Z,3.30
2019-06-20T05:19:38.525Z,3.20
2019-06-20T05:22:42.980Z,3.08
2019-06-20T05:25:47.724Z,2.55
2019-06-20T05:28:52.375Z,3.40
2019-06-20T05:31:57.173Z,3.10
2019-06-20T05:35:03.087Z,2.72
2019-06-20T05:38:07.726Z,2.83
2019-06-20T05:41:12.178Z,2.50
2019-06-20T05:44:16.639Z,2.60
2019-06-20T05:47:21.111Z,2.50
2019-06-20T05:50:25.567Z,2.22
2019-06-20T05:53:30.018Z,1.98
2019-06-20T05:56:34.480Z,2.10
2019-06-20T05:59:39.255Z,2.58
2019-06-20T06:02:43.693Z,2.25
2019-06-20T06:05:48.401Z,1.85
2019-06-20T06:08:52.841Z,1.80
2019-06-20T06:11:57.319Z,2.20
2019-06-20T06:15:02.092Z,1.80
2019-06-20T06:18:06.522Z,1.75
2019-06-20T06:21:11.343Z,2.30
2019-06-20T06:24:15.794Z,1.77
2019-06-20T06:27:20.256Z,1.62
2019-06-20T06:30:25.841Z,1.80
2019-06-20T06:33:30.287Z,1.50
2019-06-20T06:36:34.751Z,1.70
2019-06-20T06:39:39.187Z,1.32
2019-06-20T06:42:43.651Z,1.30
2019-06-20T06:45:48.140Z,1.55
2019-06-20T06:48:52.548Z,1.45
2019-06-20T06:51:57.001Z,1.37
2019-06-20T06:55:01.470Z,1.40
2019-06-20T06:58:05.910Z,1.60
2019-06-20T07:01:10.444Z,1.40
2019-06-20T07:04:14.893Z,1.42
2019-06-20T07:07:19.639Z,1.37
2019-06-20T07:10:24.530Z,1.00
2019-06-20T07:13:28.977Z,1.22
2019-06-20T07:16:33.518Z,1.42
2019-06-20T07:19:37.968Z,1.32
2019-06-20T07:22:42.400Z,1.30
2019-06-20T07:25:46.861Z,1.10
2019-06-20T07:28:51.648Z,1.52
2019-06-20T07:31:56.240Z,1.40
2019-06-20T07:35:01.183Z,1.70
2019-06-20T07:38:05.640Z,1.70
2019-06-20T07:41:10.153Z,1.32
2019-06-20T07:44:14.858Z,1.55
2019-06-20T07:47:19.594Z,1.52
2019-06-20T07:50:24.034Z,1.50
2019-06-20T07:53:28.820Z,1.77
2019-06-20T07:56:34.930Z,1.50
2019-06-20T07:59:39.412Z,1.75
2019-06-20T08:02:44.172Z,1.80
2019-06-20T08:05:48.619Z,1.70
2019-06-20T08:08:53.139Z,1.65
2019-06-20T08:11:57.606Z,1.62
2019-06-20T08:15:14.402Z,1.75
2019-06-20T08:18:08.563Z,2.10
2019-06-20T08:21:13.075Z,1.70
2019-06-20T08:24:17.551Z,2.00
2019-06-20T08:27:23.712Z,2.00
2019-06-20T08:30:32.100Z,2.10
2019-06-20T08:33:36.556Z,1.72
2019-06-20T08:36:41.336Z,1.92
2019-06-20T08:39:45.856Z,2.33
2019-06-20T08:42:50.267Z,1.60
2019-06-20T08:45:56.227Z,1.72
2019-06-20T08:49:01.579Z,1.60
2019-06-20T08:52:06.108Z,1.60
2019-06-20T08:55:10.912Z,1.67
2019-06-20T08:58:15.424Z,1.57
2019-06-20T09:01:19.881Z,1.65
2019-06-20T09:04:24.621Z,1.95
2019-06-20T09:07:29.358Z,1.60
2019-06-20T09:10:39.531Z,1.50
2019-06-20T09:13:43.985Z,1.77
2019-06-20T09:16:48.448Z,1.90
2019-06-20T09:19:53.359Z,1.52
2019-06-20T09:22:59.085Z,1.82
2019-06-20T09:26:03.947Z,1.80
2019-06-20T09:29:08.419Z,1.90
2019-06-20T09:32:12.859Z,1.92
2019-06-20T09:35:17.568Z,1.77
2019-06-20T09:38:22.294Z,1.60
2019-06-20T09:41:26.743Z,1.55
2019-06-20T09:44:31.198Z,1.72
2019-06-20T09:47:35.660Z,2.02
2019-06-20T09:50:40.098Z,1.90
2019-06-20T09:53:44.555Z,2.33
2019-06-20T09:56:53.065Z,2.20
2019-06-20T10:00:05.836Z,2.42
2019-06-20T10:03:01.430Z,2.47
2019-06-20T10:06:13.867Z,2.20
2019-06-20T10:09:12.455Z,2.35
2019-06-20T10:12:16.900Z,2.45
2019-06-20T10:15:27.830Z,2.40
2019-06-20T10:18:32.291Z,2.22
2019-06-20T10:21:36.738Z,2.42
2019-06-20T10:24:41.194Z,2.22
2019-06-20T10:27:46.620Z,1.98
2019-06-20T10:30:53.435Z,1.62
2019-06-20T10:33:58.300Z,1.90
2019-06-20T10:37:03.028Z,1.80
2019-06-20T10:40:12.624Z,2.15
2019-06-20T10:43:17.078Z,1.85
2019-06-20T10:46:21.510Z,1.70
2019-06-20T10:49:25.968Z,1.85
2019-06-20T10:52:30.420Z,1.82
2019-06-20T10:55:34.879Z,1.72
2019-06-20T10:58:41.500Z,1.72
2019-06-20T11:01:46.610Z,1.80
2019-06-20T11:04:51.236Z,2.47
2019-06-20T11:07:55.682Z,2.10
2019-06-20T11:11:00.150Z,1.90
2019-06-20T11:14:05.247Z,2.20
2019-06-20T11:17:09.691Z,1.80
2019-06-20T11:20:15.675Z,1.77
2019-06-20T11:23:20.105Z,1.85
2019-06-20T11:26:24.879Z,1.90
2019-06-20T11:29:29.615Z,2.00
2019-06-20T11:32:34.047Z,2.27
2019-06-20T11:35:39.296Z,1.72
2019-06-20T11:38:44.575Z,2.30
2019-06-20T11:41:49.341Z,1.98
2019-06-20T11:44:53.898Z,3.77
2019-06-20T11:47:58.338Z,2.27
2019-06-20T11:51:02.783Z,2.08
2019-06-20T11:54:07.244Z,1.70
2019-06-20T11:57:11.724Z,1.77
2019-06-20T12:00:16.672Z,1.60
2019-06-20T12:03:21.118Z,1.47
2019-06-20T12:06:25.852Z,1.65
2019-06-20T12:09:30.305Z,1.60
2019-06-20T12:12:34.814Z,1.47
2019-06-20T12:15:39.763Z,1.80
2019-06-20T12:18:51.659Z,2.00
2019-06-20T12:21:56.108Z,1.92
2019-06-20T12:25:00.556Z,2.00
2019-06-20T12:28:05.237Z,2.05
2019-06-20T12:31:18.998Z,1.95
2019-06-20T12:34:15.872Z,1.77
2019-06-20T12:37:20.333Z,2.30
2019-06-20T12:40:25.193Z,2.50
2019-06-20T12:43:29.595Z,2.33
2019-06-20T12:46:34.057Z,2.10
2019-06-20T12:49:39.070Z,2.15
2019-06-20T12:52:45.744Z,2.30
2019-06-20T12:55:50.843Z,2.42
2019-06-20T12:58:55.301Z,2.17
2019-06-20T13:01:59.773Z,2.08
2019-06-20T13:05:07.829Z,1.77
2019-06-20T13:08:13.643Z,1.92
2019-06-20T13:11:18.677Z,1.80
2019-06-20T13:14:23.148Z,2.35
2019-06-20T13:17:27.585Z,2.50
2019-06-20T13:20:32.051Z,1.95
2019-06-20T13:23:36.495Z,2.05
2019-06-20T13:26:42.345Z,1.92
2019-06-20T13:29:47.299Z,2.15
2019-06-20T13:32:51.802Z,2.00
2019-06-20T13:35:56.280Z,1.80
2019-06-20T13:39:00.835Z,1.75
2019-06-20T13:42:05.387Z,1.80
2019-06-20T13:45:26.031Z,1.77
2019-06-20T13:48:30.465Z,1.70
2019-06-20T13:51:35.264Z,2.00
2019-06-20T13:54:41.605Z,1.85
2019-06-20T13:57:47.187Z,1.37
2019-06-20T14:00:52.758Z,1.80
2019-06-20T14:03:57.340Z,1.50
2019-06-20T14:07:01.793Z,2.12
2019-06-20T14:10:08.014Z,2.47
2019-06-20T14:13:19.339Z,2.30
2019-06-20T14:16:19.184Z,2.00
2019-06-20T14:19:23.603Z,2.00
2019-06-20T14:22:28.056Z,1.77
2019-06-20T14:25:34.286Z,2.08
2019-06-20T14:28:38.856Z,1.90
2019-06-20T14:31:44.405Z,1.50
2019-06-20T14:34:50.352Z,1.92
2019-06-20T14:37:55.552Z,1.80
2019-06-20T14:41:00.596Z,1.57
2019-06-20T14:44:05.117Z,1.50
2019-06-20T14:47:11.080Z,2.12
2019-06-20T14:50:15.929Z,1.77
2019-06-20T14:53:20.649Z,1.50
2019-06-20T14:56:25.096Z,1.70
2019-06-20T14:59:29.534Z,1.65
2019-06-20T15:02:38.627Z,1.82
2019-06-20T15:05:40.163Z,1.75
2019-06-20T15:08:45.820Z,1.90
2019-06-20T15:11:53.098Z,1.65
2019-06-20T15:14:57.742Z,1.80
2019-06-20T15:18:02.494Z,1.70
2019-06-20T15:21:07.210Z,1.40
2019-06-20T15:24:11.651Z,1.65
2019-06-20T15:27:16.105Z,2.00
2019-06-20T15:30:20.618Z,1.75
2019-06-20T15:33:25.075Z,1.75
2019-06-20T15:36:29.527Z,2.00
2019-06-20T15:39:33.978Z,1.90
2019-06-20T15:42:38.442Z,1.70
2019-06-20T15:45:42.878Z,1.82
2019-06-20T15:48:47.403Z,1.70
2019-06-20T15:51:51.848Z,1.60
2019-06-20T15:54:56.316Z,1.70
2019-06-20T15:58:01.104Z,1.85
2019-06-20T16:01:05.574Z,2.17
2019-06-20T16:04:10.017Z,1.90
2019-06-20T16:07:14.466Z,2.00
2019-06-20T16:10:19.349Z,2.02
2019-06-20T16:13:23.805Z,2.00
2019-06-20T16:16:28.246Z,1.80
2019-06-20T16:19:33.055Z,1.90
2019-06-20T16:22:37.837Z,1.90
2019-06-20T16:25:42.566Z,1.80
2019-06-20T16:28:47.089Z,1.98
2019-06-20T16:31:51.477Z,2.12
2019-06-20T16:34:55.936Z,2.27
2019-06-20T16:38:00.511Z,1.95
2019-06-20T16:41:05.193Z,2.08
2019-06-20T16:44:10.042Z,2.47
2019-06-20T16:47:14.458Z,1.92
2019-06-20T16:50:19.393Z,1.67
2019-06-20T16:53:23.842Z,1.70
2019-06-20T16:56:28.367Z,1.45
2019-06-20T16:59:33.065Z,1.80
2019-06-20T17:02:37.655Z,1.77
2019-06-20T17:05:42.838Z,2.08
2019-06-20T17:08:47.287Z,2.47
2019-06-20T17:11:51.746Z,1.72
2019-06-20T17:14:56.218Z,2.00
2019-06-20T17:18:00.929Z,2.00
2019-06-20T17:21:05.777Z,1.90
2019-06-20T17:24:10.243Z,2.08
2019-06-20T17:27:14.678Z,1.90
2019-06-20T17:30:21.206Z,1.95
2019-06-20T17:33:25.657Z,1.60
2019-06-20T17:36:30.162Z,1.75
2019-06-20T17:39:34.613Z,2.15
2019-06-20T17:42:39.141Z,1.87
2019-06-20T17:45:43.674Z,1.90
2019-06-20T17:48:48.440Z,1.98
2019-06-20T17:51:52.891Z,1.92
2019-06-20T17:54:57.513Z,2.15
2019-06-20T17:58:02.226Z,2.08
2019-06-20T18:01:06.751Z,1.98
2019-06-20T18:04:14.044Z,2.15
2019-06-20T18:07:17.399Z,2.30
2019-06-20T18:10:22.475Z,2.02
2019-06-20T18:13:26.925Z,2.05
2019-06-20T18:16:31.385Z,2.10
2019-06-20T18:19:36.175Z,2.42
2019-06-20T18:22:40.625Z,1.90
2019-06-20T18:25:45.145Z,1.90
2019-06-20T18:28:49.656Z,2.10
2019-06-20T18:31:54.168Z,1.52
2019-06-20T18:35:02.291Z,2.10
2019-06-20T18:38:04.814Z,2.10
2019-06-20T18:41:09.276Z,1.87
2019-06-20T18:44:13.729Z,1.72
2019-06-20T18:47:18.187Z,1.90
2019-06-20T18:50:22.669Z,2.20
2019-06-20T18:53:27.086Z,1.75
2019-06-20T18:56:31.547Z,1.70
2019-06-20T18:59:35.986Z,1.90
2019-06-20T19:02:40.432Z,1.85
2019-06-20T19:05:44.887Z,1.55
2019-06-20T19:08:49.328Z,1.70
2019-06-20T19:11:53.801Z,2.00
2019-06-20T19:14:58.252Z,1.85
2019-06-20T19:18:02.793Z,1.80
2019-06-20T19:21:07.243Z,1.72
2019-06-20T19:24:12.035Z,1.72
2019-06-20T19:27:16.496Z,1.40
2019-06-20T19:30:24.557Z,1.77
2019-06-20T19:33:29.002Z,1.60
2019-06-20T19:36:33.462Z,1.60
2019-06-20T19:39:37.963Z,1.50
2019-06-20T19:42:42.463Z,1.55
2019-06-20T19:45:47.044Z,1.55
2019-06-20T19:48:51.495Z,1.75
2019-06-20T19:51:56.238Z,1.50
2019-06-20T19:55:00.685Z,1.72
2019-06-20T19:58:05.582Z,1.45
2019-06-20T20:01:10.030Z,1.40
2019-06-20T20:04:14.756Z,1.65
2019-06-20T20:07:19.301Z,1.45
2019-06-20T20:10:48.543Z,1.72
2019-06-20T20:13:52.989Z,1.77
2019-06-20T20:16:57.744Z,1.45
2019-06-20T20:20:02.196Z,1.37
2019-06-20T20:23:06.919Z,1.30
2019-06-20T20:26:11.367Z,1.70
2019-06-20T20:29:15.816Z,1.42
2019-06-20T20:32:20.270Z,1.50
2019-06-20T20:35:34.977Z,1.30
2019-06-20T20:38:31.157Z,1.45
2019-06-20T20:41:35.598Z,1.52
2019-06-20T20:44:40.045Z,1.42
2019-06-20T20:47:44.505Z,1.30
2019-06-20T20:50:48.946Z,1.67
2019-06-20T20:53:53.396Z,1.47
2019-06-20T20:56:57.856Z,1.70
2019-06-20T21:00:02.431Z,1.40
2019-06-20T21:03:07.485Z,1.50
2019-06-20T21:06:12.076Z,1.30
2019-06-20T21:09:16.834Z,1.47
2019-06-20T21:12:21.285Z,1.50
2019-06-20T21:15:26.602Z,1.35
2019-06-20T21:18:31.059Z,1.40
2019-06-20T21:21:35.507Z,1.35
2019-06-20T21:24:39.958Z,1.50
2019-06-20T21:27:44.418Z,1.35
2019-06-20T21:30:48.869Z,1.30
2019-06-20T21:33:54.670Z,1.30
2019-06-20T21:36:59.202Z,1.55
2019-06-20T21:40:05.263Z,1.70
2019-06-20T21:43:09.711Z,1.50
2019-06-20T21:46:15.139Z,1.50
2019-06-20T21:49:19.590Z,1.60
2019-06-20T21:52:24.293Z,1.30
2019-06-20T21:55:28.728Z,1.70
2019-06-20T21:58:33.184Z,1.50
2019-06-20T22:01:38.060Z,1.53
2019-06-20T22:04:54.088Z,1.35
2019-06-20T22:07:49.004Z,1.62
2019-06-20T22:10:53.441Z,1.42
2019-06-20T22:13:57.985Z,1.47
2019-06-20T22:17:02.473Z,1.50
2019-06-20T22:20:11.498Z,1.30
2019-06-20T22:23:16.016Z,1.40
2019-06-20T22:26:20.740Z,1.50
2019-06-20T22:29:25.191Z,1.60
2019-06-20T22:32:29.656Z,1.60
2019-06-20T22:35:34.102Z,1.40
2019-06-20T22:38:38.563Z,1.40
2019-06-20T22:41:43.258Z,1.85
2019-06-20T22:44:47.726Z,1.47
2019-06-20T22:47:52.173Z,1.45
2019-06-20T22:50:56.615Z,1.60
2019-06-20T22:54:01.066Z,1.60
2019-06-20T22:57:05.583Z,1.25
2019-06-20T23:00:10.827Z,1.20
2019-06-20T23:03:15.281Z,1.40
2019-06-20T23:06:19.722Z,1.20
2019-06-20T23:09:27.135Z,1.95
2019-06-20T23:12:30.367Z,1.25
2019-06-20T23:15:35.200Z,1.40
2019-06-20T23:18:39.651Z,1.50
2019-06-20T23:21:44.093Z,1.30
2019-06-20T23:24:48.558Z,1.40
2019-06-20T23:27:53.006Z,1.40
2019-06-20T23:30:57.520Z,1.40
2019-06-20T23:34:01.995Z,1.20
2019-06-20T23:37:12.560Z,1.30
2019-06-20T23:40:13.355Z,1.55
2019-06-20T23:43:17.798Z,1.40
2019-06-20T23:46:22.252Z,1.20
2019-06-20T23:49:26.729Z,1.60
2019-06-20T23:52:35.551Z,1.50
2019-06-20T23:55:40.004Z,1.70
2019-06-20T23:58:44.805Z,1.70
